sensor_id;sensor_type;location;lat;lon;timestamp;temperature;humidity
12156;DHT22;6141;49.092;8.516;2022-08-25T00:17:50;26.00;28.70
12156;DHT22;6141;49.092;8.516;2022-08-25T00:35:32;26.10;28.70
12156;DHT22;6141;49.092;8.516;2022-08-25T00:38:12;25.70;28.60
12156;DHT22;6141;49.092;8.516;2022-08-25T00:41:06;25.50;30.00
12156;DHT22;6141;49.092;8.516;2022-08-25T00:52:45;24.90;30.60
12156;DHT22;6141;49.092;8.516;2022-08-25T00:56:07;24.60;32.20
12156;DHT22;6141;49.092;8.516;2022-08-25T01:05:51;23.90;32.90
12156;DHT22;6141;49.092;8.516;2022-08-25T01:16:36;23.60;33.00
12156;DHT22;6141;49.092;8.516;2022-08-25T01:19:06;23.50;34.80
12156;DHT22;6141;49.092;8.516;2022-08-25T01:21:44;23.40;34.00
12156;DHT22;6141;49.092;8.516;2022-08-25T01:24:19;23.60;35.00
12156;DHT22;6141;49.092;8.516;2022-08-25T01:26:50;23.40;34.40
12156;DHT22;6141;49.092;8.516;2022-08-25T01:29:18;23.20;35.80
12156;DHT22;6141;49.092;8.516;2022-08-25T01:31:53;23.00;36.40
12156;DHT22;6141;49.092;8.516;2022-08-25T01:34:24;23.00;36.50
12156;DHT22;6141;49.092;8.516;2022-08-25T01:36:55;22.90;36.70
12156;DHT22;6141;49.092;8.516;2022-08-25T01:39:26;22.80;36.40
12156;DHT22;6141;49.092;8.516;2022-08-25T01:42:08;22.90;37.60
12156;DHT22;6141;49.092;8.516;2022-08-25T01:44:42;22.70;37.20
12156;DHT22;6141;49.092;8.516;2022-08-25T01:47:14;22.60;37.80
12156;DHT22;6141;49.092;8.516;2022-08-25T01:49:43;22.70;38.40
12156;DHT22;6141;49.092;8.516;2022-08-25T01:52:15;22.60;38.30
12156;DHT22;6141;49.092;8.516;2022-08-25T01:54:47;22.60;38.30
12156;DHT22;6141;49.092;8.516;2022-08-25T01:57:15;22.40;38.10
12156;DHT22;6141;49.092;8.516;2022-08-25T01:59:47;22.40;38.10
12156;DHT22;6141;49.092;8.516;2022-08-25T02:02:15;22.50;37.60
12156;DHT22;6141;49.092;8.516;2022-08-25T02:04:44;22.70;38.40
12156;DHT22;6141;49.092;8.516;2022-08-25T02:07:19;22.50;35.90
12156;DHT22;6141;49.092;8.516;2022-08-25T02:09:50;22.50;36.70
12156;DHT22;6141;49.092;8.516;2022-08-25T02:12:19;22.50;37.10
12156;DHT22;6141;49.092;8.516;2022-08-25T02:14:48;22.40;38.10
12156;DHT22;6141;49.092;8.516;2022-08-25T02:17:16;22.40;38.70
12156;DHT22;6141;49.092;8.516;2022-08-25T02:19:44;22.40;38.20
12156;DHT22;6141;49.092;8.516;2022-08-25T02:22:17;22.50;38.20
12156;DHT22;6141;49.092;8.516;2022-08-25T02:24:49;22.50;38.20
12156;DHT22;6141;49.092;8.516;2022-08-25T02:27:17;22.60;38.30
12156;DHT22;6141;49.092;8.516;2022-08-25T02:29:45;22.70;38.50
12156;DHT22;6141;49.092;8.516;2022-08-25T02:32:14;22.90;38.70
12156;DHT22;6141;49.092;8.516;2022-08-25T02:34:42;22.90;38.60
12156;DHT22;6141;49.092;8.516;2022-08-25T02:37:10;23.10;38.80
12156;DHT22;6141;49.092;8.516;2022-08-25T02:39:41;23.00;38.70
12156;DHT22;6141;49.092;8.516;2022-08-25T02:42:10;23.10;38.80
12156;DHT22;6141;49.092;8.516;2022-08-25T02:44:38;23.10;38.80
12156;DHT22;6141;49.092;8.516;2022-08-25T02:47:07;23.20;38.60
12156;DHT22;6141;49.092;8.516;2022-08-25T02:49:35;23.40;38.00
12156;DHT22;6141;49.092;8.516;2022-08-25T02:52:05;23.40;37.70
12156;DHT22;6141;49.092;8.516;2022-08-25T02:54:34;23.50;37.90
12156;DHT22;6141;49.092;8.516;2022-08-25T02:57:04;23.60;37.60
12156;DHT22;6141;49.092;8.516;2022-08-25T02:59:33;23.70;37.20
12156;DHT22;6141;49.092;8.516;2022-08-25T03:02:02;23.70;36.60
12156;DHT22;6141;49.092;8.516;2022-08-25T03:04:57;23.70;36.60
12156;DHT22;6141;49.092;8.516;2022-08-25T03:55:57;22.60;38.30
12156;DHT22;6141;49.092;8.516;2022-08-25T03:58:26;22.30;39.10
12156;DHT22;6141;49.092;8.516;2022-08-25T04:00:59;22.30;39.30
12156;DHT22;6141;49.092;8.516;2022-08-25T04:03:30;21.80;39.90
12156;DHT22;6141;49.092;8.516;2022-08-25T04:06:05;21.90;40.70
12156;DHT22;6141;49.092;8.516;2022-08-25T04:08:35;21.80;40.50
12156;DHT22;6141;49.092;8.516;2022-08-25T04:11:08;21.80;40.40
12156;DHT22;6141;49.092;8.516;2022-08-25T04:13:39;21.80;40.60
12156;DHT22;6141;49.092;8.516;2022-08-25T04:16:11;21.80;40.30
12156;DHT22;6141;49.092;8.516;2022-08-25T04:18:43;21.90;40.00
12156;DHT22;6141;49.092;8.516;2022-08-25T04:21:16;22.10;39.50
12156;DHT22;6141;49.092;8.516;2022-08-25T04:23:50;22.40;38.70
12156;DHT22;6141;49.092;8.516;2022-08-25T04:26:26;22.60;38.30
12156;DHT22;6141;49.092;8.516;2022-08-25T04:29:00;22.70;38.40
12156;DHT22;6141;49.092;8.516;2022-08-25T04:31:30;22.70;38.40
12156;DHT22;6141;49.092;8.516;2022-08-25T04:34:01;21.90;37.60
12156;DHT22;6141;49.092;8.516;2022-08-25T04:36:40;21.50;39.50
12156;DHT22;6141;49.092;8.516;2022-08-25T04:39:08;21.20;41.10
12156;DHT22;6141;49.092;8.516;2022-08-25T04:41:39;21.00;42.00
12156;DHT22;6141;49.092;8.516;2022-08-25T04:44:22;21.10;42.00
12156;DHT22;6141;49.092;8.516;2022-08-25T04:46:54;21.00;42.40
12156;DHT22;6141;49.092;8.516;2022-08-25T04:49:22;20.90;42.60
12156;DHT22;6141;49.092;8.516;2022-08-25T04:51:51;20.90;43.10
12156;DHT22;6141;49.092;8.516;2022-08-25T04:54:19;20.90;43.10
12156;DHT22;6141;49.092;8.516;2022-08-25T04:56:52;20.80;43.00
12156;DHT22;6141;49.092;8.516;2022-08-25T04:59:25;20.70;42.80
12156;DHT22;6141;49.092;8.516;2022-08-25T05:01:58;20.90;43.20
12156;DHT22;6141;49.092;8.516;2022-08-25T05:04:29;21.10;43.30
12156;DHT22;6141;49.092;8.516;2022-08-25T05:06:59;21.30;42.40
12156;DHT22;6141;49.092;8.516;2022-08-25T05:09:28;21.60;42.10
12156;DHT22;6141;49.092;8.516;2022-08-25T05:12:01;21.60;41.10
12156;DHT22;6141;49.092;8.516;2022-08-25T05:14:30;21.50;40.50
12156;DHT22;6141;49.092;8.516;2022-08-25T05:17:02;21.10;41.20
12156;DHT22;6141;49.092;8.516;2022-08-25T05:19:33;21.10;42.00
12156;DHT22;6141;49.092;8.516;2022-08-25T05:23:39;21.20;42.50
12156;DHT22;6141;49.092;8.516;2022-08-25T05:27:07;21.30;41.60
12156;DHT22;6141;49.092;8.516;2022-08-25T05:29:36;21.50;42.00
12156;DHT22;6141;49.092;8.516;2022-08-25T05:32:04;21.40;41.70
12156;DHT22;6141;49.092;8.516;2022-08-25T05:34:34;21.40;42.40
12156;DHT22;6141;49.092;8.516;2022-08-25T05:37:03;21.40;43.00
12156;DHT22;6141;49.092;8.516;2022-08-25T05:39:47;21.50;43.00
12156;DHT22;6141;49.092;8.516;2022-08-25T05:42:49;21.40;43.60
12156;DHT22;6141;49.092;8.516;2022-08-25T05:45:42;21.50;43.70
12156;DHT22;6141;49.092;8.516;2022-08-25T05:49:13;21.70;43.90
12156;DHT22;6141;49.092;8.516;2022-08-25T07:05:54;25.00;37.90
12156;DHT22;6141;49.092;8.516;2022-08-25T07:08:37;25.10;37.70
12156;DHT22;6141;49.092;8.516;2022-08-25T07:11:17;25.10;37.20
12156;DHT22;6141;49.092;8.516;2022-08-25T07:14:15;25.30;37.10
12156;DHT22;6141;49.092;8.516;2022-08-25T10:03:12;31.20;23.80
12156;DHT22;6141;49.092;8.516;2022-08-25T10:05:59;31.20;24.70
12156;DHT22;6141;49.092;8.516;2022-08-25T10:08:33;31.00;23.20
12156;DHT22;6141;49.092;8.516;2022-08-25T10:11:05;31.00;22.90
12156;DHT22;6141;49.092;8.516;2022-08-25T10:14:01;31.10;23.00
12156;DHT22;6141;49.092;8.516;2022-08-25T10:16:52;31.30;22.70
12156;DHT22;6141;49.092;8.516;2022-08-25T10:19:34;31.30;23.50
12156;DHT22;6141;49.092;8.516;2022-08-25T10:22:22;31.00;21.90
12156;DHT22;6141;49.092;8.516;2022-08-25T10:25:16;31.10;23.30
12156;DHT22;6141;49.092;8.516;2022-08-25T10:28:14;31.30;23.90
12156;DHT22;6141;49.092;8.516;2022-08-25T10:31:04;31.40;22.80
12156;DHT22;6141;49.092;8.516;2022-08-25T10:42:42;31.80;21.50
12156;DHT22;6141;49.092;8.516;2022-08-25T10:46:53;32.00;21.60
12156;DHT22;6141;49.092;8.516;2022-08-25T10:49:33;32.10;21.10
12156;DHT22;6141;49.092;8.516;2022-08-25T10:53:39;32.00;21.60
12156;DHT22;6141;49.092;8.516;2022-08-25T10:57:18;32.10;21.60
12156;DHT22;6141;49.092;8.516;2022-08-25T11:05:40;32.40;21.80
12156;DHT22;6141;49.092;8.516;2022-08-25T12:23:35;32.90;19.20
12156;DHT22;6141;49.092;8.516;2022-08-25T12:26:44;32.80;20.50
12156;DHT22;6141;49.092;8.516;2022-08-25T12:29:25;33.00;19.70
12156;DHT22;6141;49.092;8.516;2022-08-25T12:35:06;33.30;17.90
12156;DHT22;6141;49.092;8.516;2022-08-25T12:38:06;33.50;18.00
12156;DHT22;6141;49.092;8.516;2022-08-25T12:45:07;33.50;18.10
12156;DHT22;6141;49.092;8.516;2022-08-25T12:53:29;33.50;17.80
12156;DHT22;6141;49.092;8.516;2022-08-25T12:57:00;33.60;18.00
12156;DHT22;6141;49.092;8.516;2022-08-25T12:59:51;33.80;17.20
12156;DHT22;6141;49.092;8.516;2022-08-25T13:11:10;33.90;17.20
12156;DHT22;6141;49.092;8.516;2022-08-25T13:26:52;34.60;15.40
12156;DHT22;6141;49.092;8.516;2022-08-25T13:34:44;34.90;15.30
12156;DHT22;6141;49.092;8.516;2022-08-25T14:04:28;34.30;15.00
12156;DHT22;6141;49.092;8.516;2022-08-25T14:11:02;34.20;16.20
12156;DHT22;6141;49.092;8.516;2022-08-25T14:13:43;34.40;15.50
12156;DHT22;6141;49.092;8.516;2022-08-25T14:16:27;34.50;15.90
12156;DHT22;6141;49.092;8.516;2022-08-25T14:19:25;34.60;16.30
12156;DHT22;6141;49.092;8.516;2022-08-25T14:22:02;34.80;15.10
12156;DHT22;6141;49.092;8.516;2022-08-25T14:24:53;34.80;16.00
12156;DHT22;6141;49.092;8.516;2022-08-25T14:27:49;34.70;15.50
12156;DHT22;6141;49.092;8.516;2022-08-25T14:31:20;34.70;15.50
12156;DHT22;6141;49.092;8.516;2022-08-25T14:34:06;34.80;14.90
12156;DHT22;6141;49.092;8.516;2022-08-25T14:36:57;34.90;14.20
12156;DHT22;6141;49.092;8.516;2022-08-25T17:12:24;33.50;16.10
12156;DHT22;6141;49.092;8.516;2022-08-25T17:15:00;33.60;15.10
12156;DHT22;6141;49.092;8.516;2022-08-25T17:21:45;33.40;16.00
12156;DHT22;6141;49.092;8.516;2022-08-25T17:24:42;33.60;17.00
12156;DHT22;6141;49.092;8.516;2022-08-25T18:42:05;32.10;19.50
12156;DHT22;6141;49.092;8.516;2022-08-25T18:45:40;31.90;19.30
12156;DHT22;6141;49.092;8.516;2022-08-25T18:48:43;31.70;19.60
12156;DHT22;6141;49.092;8.516;2022-08-25T18:51:57;31.50;19.80
12156;DHT22;6141;49.092;8.516;2022-08-25T18:55:18;31.20;20.60
12156;DHT22;6141;49.092;8.516;2022-08-25T18:58:49;31.20;20.80
12156;DHT22;6141;49.092;8.516;2022-08-25T19:02:07;30.70;20.80
12156;DHT22;6141;49.092;8.516;2022-08-25T19:09:03;29.40;23.60
12156;DHT22;6141;49.092;8.516;2022-08-25T19:12:42;29.10;24.20
12156;DHT22;6141;49.092;8.516;2022-08-25T19:16:15;28.90;24.10
12156;DHT22;6141;49.092;8.516;2022-08-25T19:19:49;28.60;24.90
12156;DHT22;6141;49.092;8.516;2022-08-25T19:23:54;28.70;25.00
12156;DHT22;6141;49.092;8.516;2022-08-25T19:27:06;28.50;24.90
12156;DHT22;6141;49.092;8.516;2022-08-25T19:30:24;28.40;25.70
12156;DHT22;6141;49.092;8.516;2022-08-25T19:38:36;27.80;26.60
12156;DHT22;6141;49.092;8.516;2022-08-25T19:46:09;27.20;28.00
12156;DHT22;6141;49.092;8.516;2022-08-25T19:53:15;27.40;27.50
12156;DHT22;6141;49.092;8.516;2022-08-25T20:01:11;27.20;27.90
12156;DHT22;6141;49.092;8.516;2022-08-25T20:04:43;27.00;28.10
12156;DHT22;6141;49.092;8.516;2022-08-25T20:07:52;26.50;29.00
12156;DHT22;6141;49.092;8.516;2022-08-25T20:11:26;26.30;28.90
12156;DHT22;6141;49.092;8.516;2022-08-25T20:15:38;26.20;29.80
12156;DHT22;6141;49.092;8.516;2022-08-25T20:20:01;26.40;29.10
12156;DHT22;6141;49.092;8.516;2022-08-25T20:24:32;26.40;29.50
12156;DHT22;6141;49.092;8.516;2022-08-25T20:27:58;26.10;29.30
12156;DHT22;6141;49.092;8.516;2022-08-25T20:31:20;25.90;30.00
12156;DHT22;6141;49.092;8.516;2022-08-25T20:35:38;25.90;30.40
12156;DHT22;6141;49.092;8.516;2022-08-25T20:39:16;25.70;30.00
12156;DHT22;6141;49.092;8.516;2022-08-25T20:43:19;25.60;31.50
12156;DHT22;6141;49.092;8.516;2022-08-25T20:50:19;25.70;30.90
12156;DHT22;6141;49.092;8.516;2022-08-25T20:53:09;25.70;31.10
12156;DHT22;6141;49.092;8.516;2022-08-25T20:56:31;25.40;31.10
12156;DHT22;6141;49.092;8.516;2022-08-25T21:04:24;25.20;32.20
12156;DHT22;6141;49.092;8.516;2022-08-25T21:07:53;25.20;34.10
12156;DHT22;6141;49.092;8.516;2022-08-25T21:10:45;25.00;32.80
12156;DHT22;6141;49.092;8.516;2022-08-25T21:14:26;24.70;33.20
12156;DHT22;6141;49.092;8.516;2022-08-25T21:18:01;24.80;33.90
12156;DHT22;6141;49.092;8.516;2022-08-25T21:21:08;24.80;33.90
12156;DHT22;6141;49.092;8.516;2022-08-25T21:24:25;25.10;33.60
12156;DHT22;6141;49.092;8.516;2022-08-25T21:28:32;25.00;33.40
12156;DHT22;6141;49.092;8.516;2022-08-25T21:31:58;25.30;32.60
12156;DHT22;6141;49.092;8.516;2022-08-25T21:34:57;25.70;32.40
12156;DHT22;6141;49.092;8.516;2022-08-25T21:38:38;25.70;32.10
12156;DHT22;6141;49.092;8.516;2022-08-25T21:41:46;25.40;31.30
12156;DHT22;6141;49.092;8.516;2022-08-25T21:45:09;24.90;32.60
12156;DHT22;6141;49.092;8.516;2022-08-25T21:51:48;24.60;33.80
12156;DHT22;6141;49.092;8.516;2022-08-25T21:55:28;24.60;35.10
12156;DHT22;6141;49.092;8.516;2022-08-25T21:58:22;24.60;35.20
12156;DHT22;6141;49.092;8.516;2022-08-25T22:02:19;24.30;36.00
12156;DHT22;6141;49.092;8.516;2022-08-25T22:05:31;24.30;35.70
12156;DHT22;6141;49.092;8.516;2022-08-25T22:09:18;24.00;36.00
12156;DHT22;6141;49.092;8.516;2022-08-25T22:12:30;23.80;35.70
12156;DHT22;6141;49.092;8.516;2022-08-25T22:15:21;23.70;37.10
12156;DHT22;6141;49.092;8.516;2022-08-25T22:18:31;23.60;37.40
12156;DHT22;6141;49.092;8.516;2022-08-25T22:21:45;23.50;38.70
12156;DHT22;6141;49.092;8.516;2022-08-25T22:25:15;23.30;39.00
12156;DHT22;6141;49.092;8.516;2022-08-25T22:28:44;23.70;38.50
12156;DHT22;6141;49.092;8.516;2022-08-25T22:32:10;23.90;37.50
12156;DHT22;6141;49.092;8.516;2022-08-25T22:34:58;23.80;36.30
12156;DHT22;6141;49.092;8.516;2022-08-25T22:38:16;23.50;37.30
12156;DHT22;6141;49.092;8.516;2022-08-25T22:42:19;23.50;38.40
12156;DHT22;6141;49.092;8.516;2022-08-25T22:45:14;23.60;37.70
12156;DHT22;6141;49.092;8.516;2022-08-25T22:48:22;23.50;37.90
12156;DHT22;6141;49.092;8.516;2022-08-25T22:51:13;23.60;37.70
12156;DHT22;6141;49.092;8.516;2022-08-25T22:54:03;23.50;37.80
12156;DHT22;6141;49.092;8.516;2022-08-25T22:57:08;23.20;38.90
12156;DHT22;6141;49.092;8.516;2022-08-25T23:03:17;23.60;38.80
12156;DHT22;6141;49.092;8.516;2022-08-25T23:06:18;23.40;39.10
12156;DHT22;6141;49.092;8.516;2022-08-25T23:09:00;23.40;38.40
12156;DHT22;6141;49.092;8.516;2022-08-25T23:11:46;23.30;38.70
12156;DHT22;6141;49.092;8.516;2022-08-25T23:15:06;23.10;38.80
12156;DHT22;6141;49.092;8.516;2022-08-25T23:18:19;23.20;38.90
12156;DHT22;6141;49.092;8.516;2022-08-25T23:21:15;23.10;38.80
12156;DHT22;6141;49.092;8.516;2022-08-25T23:24:49;23.20;38.90
12156;DHT22;6141;49.092;8.516;2022-08-25T23:27:40;23.20;38.60
12156;DHT22;6141;49.092;8.516;2022-08-25T23:30:45;23.10;38.80
12156;DHT22;6141;49.092;8.516;2022-08-25T23:33:41;23.10;38.80
12156;DHT22;6141;49.092;8.516;2022-08-25T23:37:00;23.00;38.70
12156;DHT22;6141;49.092;8.516;2022-08-25T23:39:50;23.00;38.80
12156;DHT22;6141;49.092;8.516;2022-08-25T23:42:39;23.00;38.80
12156;DHT22;6141;49.092;8.516;2022-08-25T23:46:25;22.80;38.50
12156;DHT22;6141;49.092;8.516;2022-08-25T23:49:47;22.60;38.80
12156;DHT22;6141;49.092;8.516;2022-08-25T23:52:44;22.90;39.60
12156;DHT22;6141;49.092;8.516;2022-08-25T23:55:45;23.10;38.80
12156;DHT22;6141;49.092;8.516;2022-08-25T23:59:18;23.40;38.70
